createdAt,value
2019-05-13T00:03:34.934Z,68.84
2019-05-13T00:04:34.916Z,67.98
2019-05-13T00:05:34.898Z,67.92
2019-05-13T00:08:18.126Z,67.60
2019-05-13T00:09:18.118Z,67.16
2019-05-13T00:10:18.101Z,66.87
2019-05-13T00:19:23.682Z,66.39
2019-05-13T00:20:24.153Z,66.02
2019-05-13T00:22:56.238Z,66.68
2019-05-13T00:23:56.214Z,66.20
2019-05-13T00:24:56.202Z,66.39
2019-05-13T00:25:56.177Z,66.39
2019-05-13T00:26:56.160Z,66.59
2019-05-13T00:27:56.144Z,66.68
2019-05-13T00:28:56.121Z,67.16
2019-05-13T00:29:56.111Z,66.87
2019-05-13T00:30:56.083Z,66.87
2019-05-13T00:31:56.064Z,66.87
2019-05-13T00:32:56.040Z,66.02
2019-05-13T00:33:56.023Z,65.92
2019-05-13T00:34:56.000Z,65.92
2019-05-13T00:35:55.983Z,66.68
2019-05-13T00:37:07.656Z,66.87
2019-05-13T00:37:55.940Z,66.59
2019-05-13T00:38:55.927Z,66.97
2019-05-13T00:39:55.907Z,66.39
2019-05-13T00:40:55.884Z,66.20
2019-05-13T00:41:55.864Z,66.39
2019-05-13T00:42:55.848Z,66.49
2019-05-13T00:43:55.824Z,66.30
2019-05-13T00:44:55.812Z,66.30
2019-05-13T00:45:55.792Z,65.92
2019-05-13T00:46:55.767Z,66.30
2019-05-13T00:47:55.751Z,66.39
2019-05-13T00:48:55.730Z,66.20
2019-05-13T00:49:55.708Z,66.78
2019-05-13T00:50:55.699Z,67.44
2019-05-13T00:51:55.671Z,67.16
2019-05-13T00:52:55.649Z,66.97
2019-05-13T00:53:55.629Z,66.39
2019-05-13T00:54:55.617Z,66.74
2019-05-13T00:55:55.590Z,67.13
2019-05-13T00:56:55.572Z,67.41
2019-05-13T00:57:55.552Z,66.74
2019-05-13T00:58:55.534Z,66.94
2019-05-13T00:59:55.516Z,67.54
2019-05-13T01:00:55.503Z,67.03
2019-05-13T01:02:55.459Z,66.87
2019-05-13T01:03:55.437Z,67.60
2019-05-13T01:04:55.417Z,67.88
2019-05-13T01:05:55.399Z,67.79
2019-05-13T01:06:55.381Z,67.50
2019-05-13T01:07:55.356Z,67.60
2019-05-13T01:08:55.340Z,67.69
2019-05-13T01:09:55.320Z,68.17
2019-05-13T01:10:55.306Z,68.27
2019-05-13T01:11:55.284Z,68.27
2019-05-13T01:12:55.263Z,68.27
2019-05-13T01:13:55.244Z,68.17
2019-05-13T01:14:55.218Z,68.17
2019-05-13T01:15:55.204Z,68.27
2019-05-13T01:16:55.185Z,68.36
2019-05-13T01:17:55.162Z,67.98
2019-05-13T01:18:55.142Z,68.17
2019-05-13T01:19:55.124Z,68.17
2019-05-13T01:20:55.106Z,68.17
2019-05-13T01:21:55.085Z,67.79
2019-05-13T01:22:55.062Z,68.07
2019-05-13T01:23:55.042Z,67.88
2019-05-13T01:24:55.035Z,67.98
2019-05-13T01:25:55.004Z,68.17
2019-05-13T01:26:54.983Z,68.46
2019-05-13T01:27:54.970Z,68.55
2019-05-13T01:28:54.955Z,68.84
2019-05-13T01:29:54.916Z,68.46
2019-05-13T01:30:54.910Z,69.12
2019-05-13T01:31:54.885Z,68.65
2019-05-13T01:32:54.871Z,68.65
2019-05-13T01:33:54.846Z,68.93
2019-05-13T01:34:54.826Z,68.84
2019-05-13T01:35:54.809Z,68.84
2019-05-13T01:36:54.798Z,68.74
2019-05-13T01:37:54.765Z,69.02
2019-05-13T01:38:54.747Z,69.50
2019-05-13T01:39:54.729Z,69.12
2019-05-13T01:40:54.711Z,69.12
2019-05-13T01:41:54.691Z,70.17
2019-05-13T01:42:54.668Z,70.45
2019-05-13T01:43:54.648Z,70.17
2019-05-13T01:44:54.628Z,70.36
2019-05-13T01:45:54.610Z,70.64
2019-05-13T01:46:54.593Z,70.64
2019-05-13T01:47:54.570Z,70.83
2019-05-13T01:48:54.554Z,71.22
2019-05-13T01:49:54.532Z,71.69
2019-05-13T01:50:54.511Z,71.22
2019-05-13T01:51:54.491Z,71.12
2019-05-13T01:52:54.672Z,71.59
2019-05-13T01:53:54.449Z,71.50
2019-05-13T01:54:54.489Z,71.31
2019-05-13T01:55:54.408Z,71.78
2019-05-13T01:56:54.392Z,71.50
2019-05-13T01:57:54.370Z,71.88
2019-05-13T01:58:54.347Z,71.97
2019-05-13T01:59:54.332Z,71.78
2019-05-13T02:00:55.319Z,72.07
2019-05-13T02:01:54.289Z,71.50
2019-05-13T02:02:54.527Z,71.69
2019-05-13T02:03:54.588Z,71.69
2019-05-13T02:04:54.231Z,71.88
2019-05-13T02:05:54.559Z,71.94
2019-05-13T02:06:54.414Z,72.26
2019-05-13T02:07:59.822Z,72.64
2019-05-13T02:08:54.634Z,72.41
2019-05-13T02:09:54.129Z,72.45
2019-05-13T02:10:54.746Z,72.64
2019-05-13T02:11:54.093Z,72.92
2019-05-13T02:12:54.073Z,72.74
2019-05-13T02:13:54.207Z,73.18
2019-05-13T02:14:54.033Z,73.46
2019-05-13T02:15:54.852Z,73.30
2019-05-13T02:16:53.989Z,73.40
2019-05-13T02:17:53.973Z,73.59
2019-05-13T02:18:53.963Z,74.16
2019-05-13T02:19:54.131Z,73.84
2019-05-13T02:20:55.466Z,73.84
2019-05-13T02:21:54.409Z,73.93
2019-05-13T02:22:53.871Z,73.74
2019-05-13T02:23:53.853Z,74.41
2019-05-13T02:24:53.832Z,74.22
2019-05-13T02:25:54.526Z,74.41
2019-05-13T02:26:54.364Z,74.51
2019-05-13T02:27:54.238Z,74.60
2019-05-13T02:28:54.181Z,74.31
2019-05-13T02:29:54.065Z,74.60
2019-05-13T02:30:56.131Z,74.98
2019-05-13T02:31:56.210Z,75.17
2019-05-13T02:32:53.676Z,75.36
2019-05-13T02:33:53.652Z,75.36
2019-05-13T02:34:53.648Z,75.36
2019-05-13T02:35:54.072Z,75.74
2019-05-13T02:36:53.591Z,75.45
2019-05-13T02:37:53.576Z,75.84
2019-05-13T02:38:53.554Z,76.03
2019-05-13T02:39:53.532Z,75.84
2019-05-13T02:40:53.830Z,75.64
2019-05-13T02:41:53.535Z,75.55
2019-05-13T02:42:53.475Z,76.40
2019-05-13T02:43:53.462Z,76.31
2019-05-13T02:44:53.437Z,76.40
2019-05-13T02:45:54.046Z,76.31
2019-05-13T02:46:53.391Z,75.84
2019-05-13T02:47:53.381Z,76.50
2019-05-13T02:48:53.351Z,76.31
2019-05-13T02:49:53.566Z,76.21
2019-05-13T02:50:54.113Z,76.78
2019-05-13T02:51:54.585Z,76.88
2019-05-13T02:52:53.338Z,76.97
2019-05-13T02:53:53.252Z,77.55
2019-05-13T02:54:53.233Z,77.55
2019-05-13T02:55:53.279Z,77.55
2019-05-13T02:56:53.190Z,77.55
2019-05-13T02:57:53.168Z,77.26
2019-05-13T02:58:53.156Z,77.36
2019-05-13T02:59:53.130Z,77.26
2019-05-13T03:00:53.958Z,77.83
2019-05-13T03:01:53.700Z,77.83
2019-05-13T03:02:53.071Z,78.30
2019-05-13T03:03:53.109Z,78.21
2019-05-13T03:04:53.052Z,78.02
2019-05-13T03:05:53.425Z,78.21
2019-05-13T03:06:52.988Z,78.11
2019-05-13T03:07:53.277Z,78.27
2019-05-13T03:08:54.473Z,78.50
2019-05-13T03:09:53.046Z,77.73
2019-05-13T03:10:53.665Z,78.11
2019-05-13T03:11:53.721Z,78.21
2019-05-13T03:12:53.518Z,78.78
2019-05-13T03:13:53.347Z,78.55
2019-05-13T03:14:53.419Z,78.02
2019-05-13T03:15:52.812Z,79.12
2019-05-13T03:16:52.926Z,78.74
2019-05-13T03:17:52.889Z,78.74
2019-05-13T03:18:52.747Z,78.74
2019-05-13T03:19:53.402Z,78.69
2019-05-13T03:20:53.126Z,78.36
2019-05-13T03:21:52.922Z,78.59
2019-05-13T03:22:53.008Z,79.31
2019-05-13T03:23:52.784Z,78.93
2019-05-13T03:24:52.699Z,78.93
2019-05-13T03:25:53.652Z,79.12
2019-05-13T03:26:53.467Z,79.79
2019-05-13T03:27:53.970Z,79.69
2019-05-13T03:28:52.611Z,79.60
2019-05-13T03:29:53.459Z,79.60
2019-05-13T03:30:56.273Z,80.16
2019-05-13T03:31:55.525Z,79.97
2019-05-13T03:33:00.404Z,80.07
2019-05-13T03:33:56.029Z,79.88
2019-05-13T03:34:56.234Z,80.45
2019-05-13T03:35:55.983Z,79.60
2019-05-13T03:36:56.670Z,79.88
2019-05-13T03:37:52.850Z,80.45
2019-05-13T03:39:05.113Z,80.35
2019-05-13T03:39:52.474Z,80.26
2019-05-13T03:40:52.704Z,81.02
2019-05-13T03:41:52.964Z,80.64
2019-05-13T03:42:53.445Z,80.16
2019-05-13T03:43:53.238Z,80.55
2019-05-13T03:44:52.572Z,80.74
2019-05-13T03:45:52.729Z,80.93
2019-05-13T03:46:53.105Z,80.83
2019-05-13T03:47:52.778Z,81.02
2019-05-13T03:48:52.912Z,80.64
2019-05-13T03:49:53.250Z,81.02
2019-05-13T03:50:53.342Z,81.49
2019-05-13T03:51:53.440Z,82.07
2019-05-13T03:52:52.498Z,81.97
2019-05-13T03:53:53.435Z,81.30
2019-05-13T03:54:52.214Z,81.59
2019-05-13T03:55:54.192Z,81.78
2019-05-13T03:56:53.074Z,81.49
2019-05-13T03:57:53.191Z,82.07
2019-05-13T03:58:53.697Z,81.68
2019-05-13T03:59:52.717Z,81.78
2019-05-13T04:00:52.010Z,82.16
2019-05-13T04:01:52.559Z,81.97
2019-05-13T04:02:52.202Z,81.40
2019-05-13T04:03:52.903Z,81.97
2019-05-13T04:04:53.086Z,81.78
2019-05-13T04:05:52.890Z,82.07
2019-05-13T04:06:53.033Z,82.82
2019-05-13T04:07:52.436Z,82.54
2019-05-13T04:08:53.951Z,82.73
2019-05-13T04:09:52.478Z,82.54
2019-05-13T04:10:52.511Z,82.54
2019-05-13T04:11:52.642Z,82.64
2019-05-13T04:12:52.749Z,82.77
2019-05-13T04:13:52.635Z,82.20
2019-05-13T04:14:52.877Z,82.39
2019-05-13T04:15:53.018Z,82.87
2019-05-13T04:16:53.148Z,82.77
2019-05-13T04:17:53.090Z,83.34
2019-05-13T04:18:53.609Z,82.01
2019-05-13T04:19:52.942Z,82.68
2019-05-13T04:20:52.972Z,82.10
2019-05-13T04:21:52.868Z,82.96
2019-05-13T04:22:52.970Z,83.25
2019-05-13T04:23:53.119Z,83.44
2019-05-13T04:24:53.040Z,83.44
2019-05-13T04:25:53.695Z,84.10
2019-05-13T04:26:53.242Z,84.20
2019-05-13T04:27:52.398Z,84.10
2019-05-13T04:28:52.626Z,84.01
2019-05-13T04:29:52.739Z,84.01
2019-05-13T04:30:52.664Z,83.44
2019-05-13T04:31:53.181Z,83.34
2019-05-13T04:32:53.353Z,83.15
2019-05-13T04:33:53.105Z,83.25
2019-05-13T04:34:52.883Z,84.10
2019-05-13T04:35:52.961Z,83.82
2019-05-13T04:36:52.016Z,83.72
2019-05-13T04:37:52.570Z,83.62
2019-05-13T04:38:52.826Z,83.53
2019-05-13T04:39:55.805Z,83.25
2019-05-13T04:40:52.863Z,83.34
2019-05-13T04:41:52.972Z,83.34
2019-05-13T04:42:53.358Z,83.62
2019-05-13T04:43:54.113Z,83.82
2019-05-13T04:44:53.216Z,83.34
2019-05-13T04:45:52.412Z,83.34
2019-05-13T04:46:52.292Z,83.82
2019-05-13T04:47:52.934Z,84.48
2019-05-13T04:48:53.105Z,84.39
2019-05-13T04:49:53.463Z,83.06
2019-05-13T04:50:53.364Z,83.91
2019-05-13T04:51:52.327Z,84.20
2019-05-13T04:52:52.534Z,84.10
2019-05-13T04:53:56.080Z,83.25
2019-05-13T04:54:52.756Z,84.01
2019-05-13T04:55:52.661Z,84.29
2019-05-13T04:56:52.567Z,84.58
2019-05-13T04:57:53.258Z,84.48
2019-05-13T04:58:52.774Z,84.77
2019-05-13T04:59:51.768Z,84.62
2019-05-13T05:01:02.694Z,84.48
2019-05-13T05:01:57.851Z,84.81
2019-05-13T05:02:55.011Z,84.43
2019-05-13T05:03:53.039Z,83.34
2019-05-13T05:04:52.458Z,84.33
2019-05-13T05:05:52.717Z,84.62
2019-05-13T05:06:52.647Z,85.00
2019-05-13T05:07:52.496Z,84.52
2019-05-13T05:08:52.485Z,84.81
2019-05-13T05:10:23.357Z,84.43
2019-05-13T05:10:53.829Z,84.72
2019-05-13T05:11:52.920Z,84.81
2019-05-13T05:12:51.881Z,84.62
2019-05-13T05:13:53.090Z,84.62
2019-05-13T05:14:52.200Z,84.62
2019-05-13T05:15:52.235Z,84.72
2019-05-13T05:16:52.241Z,84.24
2019-05-13T05:17:52.169Z,84.62
2019-05-13T05:18:52.652Z,84.43
2019-05-13T05:19:52.534Z,84.43
2019-05-13T05:20:51.925Z,84.72
2019-05-13T05:21:52.732Z,84.33
2019-05-13T05:22:51.257Z,84.72
2019-05-13T05:23:51.528Z,85.38
2019-05-13T05:24:52.076Z,84.72
2019-05-13T05:25:52.158Z,84.72
2019-05-13T05:26:52.171Z,84.72
2019-05-13T05:27:51.422Z,84.66
2019-05-13T05:28:51.905Z,84.43
2019-05-13T05:29:51.627Z,84.52
2019-05-13T05:30:51.845Z,84.56
2019-05-13T05:31:51.941Z,84.47
2019-05-13T05:32:51.855Z,84.76
2019-05-13T05:33:51.660Z,84.19
2019-05-13T05:34:51.907Z,83.33
2019-05-13T05:35:52.052Z,83.90
2019-05-13T05:36:52.006Z,84.66
2019-05-13T05:37:52.086Z,84.66
2019-05-13T05:38:51.380Z,84.38
2019-05-13T05:39:51.258Z,85.14
2019-05-13T05:40:51.091Z,84.56
2019-05-13T05:41:51.424Z,84.00
2019-05-13T05:42:51.765Z,84.66
2019-05-13T05:43:52.043Z,84.19
2019-05-13T05:44:51.830Z,84.19
2019-05-13T05:45:51.233Z,84.38
2019-05-13T05:46:51.502Z,83.56
2019-05-13T05:47:51.117Z,83.75
2019-05-13T05:48:50.805Z,83.47
2019-05-13T05:49:51.607Z,83.75
2019-05-13T05:50:51.575Z,83.56
2019-05-13T05:51:51.478Z,83.75
2019-05-13T05:52:51.363Z,83.47
2019-05-13T05:53:51.676Z,83.56
2019-05-13T05:54:51.554Z,83.65
2019-05-13T05:55:51.644Z,83.18
2019-05-13T05:56:51.814Z,83.28
2019-05-13T05:57:52.110Z,83.47
2019-05-13T05:58:49.522Z,83.65
2019-05-13T05:59:51.745Z,83.28
2019-05-13T06:00:51.956Z,83.61
2019-05-13T06:01:52.351Z,83.32
2019-05-13T06:02:49.439Z,82.93
2019-05-13T06:03:49.421Z,82.18
2019-05-13T06:04:52.015Z,82.18
2019-05-13T06:05:51.229Z,82.27
2019-05-13T06:06:52.038Z,82.56
2019-05-13T06:07:51.342Z,81.89
2019-05-13T06:08:51.491Z,81.79
2019-05-13T06:09:51.465Z,81.51
2019-05-13T06:10:52.932Z,82.18
2019-05-13T06:11:49.266Z,82.37
2019-05-13T06:12:49.239Z,82.08
2019-05-13T06:13:53.838Z,81.79
2019-05-13T06:14:52.200Z,81.17
2019-05-13T06:15:51.335Z,81.36
2019-05-13T06:16:51.700Z,81.84
2019-05-13T06:17:51.630Z,81.55
2019-05-13T06:18:49.130Z,81.46
2019-05-13T06:19:51.100Z,80.98
2019-05-13T06:20:51.069Z,79.93
2019-05-13T06:21:51.202Z,79.74
2019-05-13T06:22:51.415Z,80.22
2019-05-13T06:23:51.703Z,80.79
2019-05-13T06:24:49.025Z,80.73
2019-05-13T06:25:48.984Z,79.11
2019-05-13T06:26:48.968Z,78.73
2019-05-13T06:27:51.091Z,79.02
2019-05-13T06:28:48.933Z,78.73
2019-05-13T06:29:50.254Z,78.73
2019-05-13T06:30:48.890Z,79.02
2019-05-13T06:31:48.869Z,79.11
2019-05-13T06:32:48.861Z,78.35
2019-05-13T06:33:48.836Z,78.16
2019-05-13T06:34:48.818Z,77.25
2019-05-13T06:35:48.794Z,77.34
2019-05-13T06:36:48.774Z,77.44
2019-05-13T06:37:48.764Z,78.01
2019-05-13T06:38:51.167Z,77.62
2019-05-13T06:39:51.094Z,76.77
2019-05-13T06:41:00.425Z,76.67
2019-05-13T06:41:48.685Z,75.81
2019-05-13T06:42:48.669Z,75.81
2019-05-13T06:43:48.644Z,75.91
2019-05-13T06:44:48.626Z,76.01
2019-05-13T06:45:48.608Z,76.10
2019-05-13T06:46:48.586Z,76.67
2019-05-13T06:47:48.571Z,76.67
2019-05-13T06:48:48.550Z,76.23
2019-05-13T06:49:48.542Z,75.47
2019-05-13T06:50:48.516Z,75.76
2019-05-13T06:51:48.494Z,75.85
2019-05-13T06:52:48.524Z,75.95
2019-05-13T06:53:48.459Z,75.09
2019-05-13T06:54:48.441Z,74.42
2019-05-13T06:55:48.426Z,74.42
2019-05-13T06:56:48.405Z,74.08
2019-05-13T06:57:48.386Z,73.98
2019-05-13T06:58:48.370Z,74.17
2019-05-13T06:59:48.353Z,73.98
2019-05-13T07:00:48.341Z,72.93
2019-05-13T07:01:48.316Z,72.07
2019-05-13T07:02:48.297Z,71.78
2019-05-13T07:03:48.282Z,71.78
2019-05-13T07:04:48.264Z,71.88
2019-05-13T07:05:48.244Z,72.17
2019-05-13T07:06:48.230Z,73.32
2019-05-13T07:07:48.209Z,72.68
2019-05-13T07:08:48.189Z,71.72
2019-05-13T07:09:48.167Z,71.44
2019-05-13T07:10:48.154Z,70.48
2019-05-13T07:11:48.213Z,69.82
2019-05-13T07:12:48.123Z,70.33
2019-05-13T07:13:48.106Z,70.81
2019-05-13T07:14:48.089Z,69.27
2019-05-13T07:15:48.072Z,68.80
2019-05-13T07:16:48.051Z,68.70
2019-05-13T07:17:48.034Z,68.23
2019-05-13T07:18:48.015Z,68.51
2019-05-13T07:19:47.999Z,67.49
2019-05-13T07:20:47.986Z,66.83
2019-05-13T07:21:47.962Z,66.96
2019-05-13T07:22:47.947Z,65.17
2019-05-13T07:23:51.007Z,65.01
2019-05-13T07:24:47.920Z,63.32
2019-05-13T07:25:47.903Z,61.24
2019-05-13T07:26:47.878Z,58.91
2019-05-13T07:27:47.862Z,57.21
2019-05-13T07:28:47.842Z,55.22
2019-05-13T07:29:47.829Z,54.67
2019-05-13T07:30:47.811Z,53.25
2019-05-13T07:31:47.795Z,51.96
2019-05-13T07:32:47.786Z,50.23
2019-05-13T07:33:47.770Z,48.90
2019-05-13T07:34:47.760Z,48.33
2019-05-13T07:35:47.768Z,48.83
2019-05-13T07:36:47.723Z,48.25
2019-05-13T07:37:47.701Z,48.86
2019-05-13T07:42:14.219Z,45.57
2019-05-13T07:43:14.203Z,43.62
2019-05-13T07:44:14.192Z,44.22
2019-05-13T07:45:14.174Z,43.93
2019-05-13T07:46:14.171Z,43.54
2019-05-13T07:47:16.005Z,42.56
2019-05-13T07:48:21.240Z,44.10
2019-05-13T07:49:14.134Z,44.22
2019-05-13T07:50:14.127Z,43.16
2019-05-13T07:51:14.111Z,41.69
2019-05-13T07:52:14.099Z,41.60
2019-05-13T07:53:18.806Z,42.46
2019-05-13T07:54:14.081Z,43.04
2019-05-13T07:55:14.081Z,43.41
2019-05-13T07:56:14.066Z,41.77
2019-05-13T07:57:14.061Z,41.77
2019-05-13T07:58:14.053Z,41.28
2019-05-13T07:59:14.042Z,41.92
2019-05-13T08:00:14.035Z,42.57
2019-05-13T08:01:14.029Z,42.89
2019-05-13T08:02:14.023Z,43.64
2019-05-13T08:03:14.015Z,44.79
2019-05-13T08:04:22.353Z,44.55
2019-05-13T08:05:14.000Z,44.40
2019-05-13T08:06:13.997Z,43.75
2019-05-13T08:07:13.989Z,43.21
2019-05-13T08:08:13.976Z,41.88
2019-05-13T08:09:13.969Z,39.54
2019-05-13T08:10:13.962Z,40.28
2019-05-13T08:11:13.962Z,41.02
2019-05-13T08:12:14.618Z,39.29
2019-05-13T08:13:13.948Z,38.93
2019-05-13T08:14:13.941Z,37.98
2019-05-13T08:15:13.933Z,37.42
2019-05-13T08:16:13.931Z,36.05
2019-05-13T08:17:13.963Z,36.15
2019-05-13T08:18:13.922Z,36.08
2019-05-13T08:19:13.912Z,35.35
2019-05-13T08:20:13.907Z,33.41
2019-05-13T08:21:13.903Z,32.96
2019-05-13T08:22:13.897Z,31.70
2019-05-13T08:23:13.895Z,31.02
2019-05-13T08:24:13.891Z,31.60
2019-05-13T08:25:13.892Z,31.79
2019-05-13T08:26:13.883Z,31.91
2019-05-13T08:27:13.881Z,31.60
2019-05-13T08:28:13.875Z,31.70
2019-05-13T08:29:13.875Z,31.12
2019-05-13T08:30:13.874Z,29.55
2019-05-13T08:31:13.867Z,29.37
2019-05-13T08:32:13.872Z,29.21
2019-05-13T08:33:13.863Z,29.10
2019-05-13T08:34:13.866Z,29.63
2019-05-13T08:35:13.868Z,29.70
2019-05-13T08:36:13.862Z,30.29
2019-05-13T08:37:13.851Z,30.66
2019-05-13T08:38:14.046Z,31.12
2019-05-13T08:39:13.846Z,31.38
2019-05-13T08:40:13.844Z,32.31
2019-05-13T08:41:18.891Z,33.91
2019-05-13T08:42:19.004Z,35.04
2019-05-13T08:43:13.836Z,36.47
2019-05-13T08:44:13.832Z,36.89
2019-05-13T08:45:13.829Z,38.18
2019-05-13T08:46:13.820Z,36.77
2019-05-13T08:47:13.820Z,34.48
2019-05-13T08:48:13.822Z,33.84
2019-05-13T08:49:13.817Z,33.01
2019-05-13T08:50:13.810Z,31.01
2019-05-13T08:51:13.811Z,27.60
2019-05-13T08:52:13.820Z,26.73
2019-05-13T08:53:13.802Z,27.51
2019-05-13T08:54:13.804Z,28.02
2019-05-13T08:55:16.149Z,28.61
2019-05-13T08:56:13.799Z,27.45
2019-05-13T08:57:13.789Z,28.49
2019-05-13T08:58:13.797Z,28.94
2019-05-13T08:59:13.789Z,30.02
2019-05-13T09:00:13.913Z,30.24
2019-05-13T09:01:13.794Z,29.55
2019-05-13T09:02:13.781Z,29.53
2019-05-13T09:03:13.780Z,30.79
2019-05-13T09:04:13.780Z,30.31
2019-05-13T09:05:13.782Z,30.20
2019-05-13T09:06:13.776Z,29.34
2019-05-13T09:07:13.873Z,29.36
2019-05-13T09:08:13.779Z,29.57
2019-05-13T09:09:13.772Z,27.64
2019-05-13T09:10:13.770Z,28.14
2019-05-13T09:11:13.764Z,27.82
2019-05-13T09:12:28.649Z,28.90
2019-05-13T09:13:13.763Z,28.87
2019-05-13T09:14:13.765Z,30.02
2019-05-13T09:15:13.765Z,28.19
2019-05-13T09:16:13.763Z,28.20
2019-05-13T09:17:13.760Z,28.41
2019-05-13T09:18:13.776Z,27.53
2019-05-13T09:19:16.319Z,25.66
2019-05-13T09:20:13.752Z,27.09
2019-05-13T09:21:13.757Z,28.07
2019-05-13T09:22:13.756Z,26.53
2019-05-13T09:23:13.757Z,27.51
2019-05-13T09:24:25.317Z,27.89
2019-05-13T09:25:13.750Z,27.76
2019-05-13T09:26:13.750Z,28.54
2019-05-13T09:27:13.746Z,29.01
2019-05-13T09:28:13.750Z,30.52
2019-05-13T09:29:13.744Z,31.27
2019-05-13T09:30:13.740Z,33.07
2019-05-13T09:31:13.748Z,33.94
2019-05-13T09:32:13.734Z,34.11
2019-05-13T09:33:13.732Z,33.63
2019-05-13T09:34:13.726Z,34.77
2019-05-13T09:35:13.730Z,35.04
2019-05-13T09:36:13.730Z,35.04
2019-05-13T09:37:13.722Z,35.31
2019-05-13T09:38:13.721Z,35.99
2019-05-13T09:39:13.721Z,35.12
2019-05-13T09:40:13.718Z,35.68
2019-05-13T09:41:13.712Z,35.77
2019-05-13T09:42:13.705Z,35.85
2019-05-13T09:43:13.700Z,36.43
2019-05-13T09:44:13.711Z,35.76
2019-05-13T09:45:13.698Z,35.68
2019-05-13T09:46:13.690Z,36.68
2019-05-13T09:47:13.686Z,34.88
2019-05-13T09:48:13.677Z,34.42
2019-05-13T09:49:19.857Z,33.65
2019-05-13T09:50:27.981Z,31.85
2019-05-13T09:51:13.661Z,31.48
2019-05-13T09:52:13.659Z,31.60
2019-05-13T09:53:13.654Z,30.96
2019-05-13T09:54:13.649Z,29.91
2019-05-13T09:55:25.395Z,28.85
2019-05-13T09:56:13.643Z,28.76
2019-05-13T09:57:13.639Z,28.28
2019-05-13T09:58:13.631Z,28.68
2019-05-13T09:59:13.625Z,29.17
2019-05-13T10:00:13.624Z,30.44
2019-05-13T10:01:13.622Z,28.40
2019-05-13T10:02:13.812Z,27.73
2019-05-13T10:03:14.222Z,28.61
2019-05-13T10:04:13.605Z,28.04
2019-05-13T10:05:13.602Z,27.67
2019-05-13T10:06:13.597Z,27.28
2019-05-13T10:07:13.703Z,27.37
2019-05-13T10:08:13.590Z,27.87
2019-05-13T10:09:13.588Z,26.90
2019-05-13T10:10:13.580Z,26.32
2019-05-13T10:11:13.582Z,25.82
2019-05-13T10:12:13.577Z,26.18
2019-05-13T10:13:15.668Z,26.48
2019-05-13T10:14:13.567Z,27.73
2019-05-13T10:15:13.565Z,26.29
2019-05-13T10:16:13.566Z,26.39
2019-05-13T10:17:13.564Z,26.20
2019-05-13T10:18:13.569Z,26.59
2019-05-13T10:19:13.558Z,26.40
2019-05-13T10:20:13.555Z,26.60
2019-05-13T10:21:13.553Z,27.01
2019-05-13T10:22:13.559Z,26.53
2019-05-13T10:23:13.553Z,25.65
2019-05-13T10:24:13.546Z,24.78
2019-05-13T10:25:13.549Z,24.57
2019-05-13T10:26:14.577Z,26.23
2019-05-13T10:27:13.546Z,26.44
2019-05-13T10:28:13.543Z,24.80
2019-05-13T10:29:13.543Z,25.10
2019-05-13T10:30:13.547Z,24.24
2019-05-13T10:31:13.543Z,24.16
2019-05-13T10:32:13.543Z,23.74
2019-05-13T10:33:13.543Z,24.19
2019-05-13T10:34:14.235Z,24.07
2019-05-13T10:35:13.540Z,24.91
2019-05-13T10:36:13.543Z,25.46
2019-05-13T10:37:13.539Z,27.17
2019-05-13T10:38:13.614Z,28.30
2019-05-13T10:39:13.534Z,29.46
2019-05-13T10:40:13.534Z,30.32
2019-05-13T10:41:13.543Z,30.88
2019-05-13T10:42:13.531Z,31.15
2019-05-13T10:43:29.896Z,31.54
2019-05-13T10:44:13.528Z,31.28
2019-05-13T10:45:13.526Z,30.17
2019-05-13T10:46:13.526Z,30.51
2019-05-13T10:47:13.532Z,27.73
2019-05-13T10:48:13.643Z,26.11
2019-05-13T10:49:13.525Z,25.56
2019-05-13T10:50:13.520Z,25.29
2019-05-13T10:51:13.523Z,24.33
2019-05-13T10:52:13.522Z,23.17
2019-05-13T10:53:13.521Z,22.59
2019-05-13T10:54:13.517Z,21.39
2019-05-13T10:55:13.516Z,22.24
2019-05-13T10:56:13.518Z,23.20
2019-05-13T10:57:13.917Z,22.97
2019-05-13T10:58:13.517Z,23.07
2019-05-13T10:59:13.513Z,21.82
2019-05-13T11:00:13.516Z,22.60
2019-05-13T11:01:13.521Z,22.00
2019-05-13T11:02:13.678Z,23.33
2019-05-13T11:03:13.511Z,24.39
2019-05-13T11:04:13.993Z,24.01
2019-05-13T11:05:13.512Z,24.19
2019-05-13T11:06:13.506Z,24.86
2019-05-13T11:07:13.509Z,24.96
2019-05-13T11:08:13.506Z,25.43
2019-05-13T11:09:13.504Z,26.09
2019-05-13T11:10:13.634Z,26.46
2019-05-13T11:11:13.503Z,26.08
2019-05-13T11:12:13.506Z,25.96
2019-05-13T11:13:13.506Z,27.11
2019-05-13T11:14:15.672Z,27.76
2019-05-13T11:15:13.491Z,28.62
2019-05-13T11:16:13.499Z,29.76
2019-05-13T11:17:13.611Z,30.63
2019-05-13T11:18:19.094Z,30.22
2019-05-13T11:19:13.486Z,29.93
2019-05-13T11:20:13.483Z,30.88
2019-05-13T11:21:13.482Z,32.14
2019-05-13T11:22:13.478Z,32.14
2019-05-13T11:23:13.472Z,32.43
2019-05-13T11:24:13.472Z,32.17
2019-05-13T11:25:13.472Z,31.25
2019-05-13T11:26:13.463Z,30.91
2019-05-13T11:27:13.459Z,29.47
2019-05-13T11:28:13.458Z,28.33
2019-05-13T11:29:13.458Z,27.20
2019-05-13T11:30:13.454Z,27.89
2019-05-13T11:31:13.446Z,26.56
2019-05-13T11:32:13.554Z,26.87
2019-05-13T11:33:13.445Z,25.45
2019-05-13T11:34:13.446Z,24.89
2019-05-13T11:35:13.439Z,23.93
2019-05-13T11:36:18.919Z,22.27
2019-05-13T11:37:13.433Z,22.19
2019-05-13T11:38:13.443Z,23.75
2019-05-13T11:39:13.438Z,23.18
2019-05-13T11:40:13.432Z,22.90
2019-05-13T11:41:13.429Z,21.44
2019-05-13T11:42:13.941Z,21.14
2019-05-13T11:43:13.425Z,22.80
2019-05-13T11:44:16.759Z,23.01
2019-05-13T11:45:13.423Z,21.75
2019-05-13T11:46:13.427Z,22.25
2019-05-13T11:47:13.419Z,20.01
2019-05-13T11:48:13.421Z,21.09
2019-05-13T11:49:13.424Z,21.39
2019-05-13T11:50:13.420Z,21.31
2019-05-13T11:51:13.455Z,19.95
2019-05-13T11:52:13.424Z,19.08
2019-05-13T11:53:31.502Z,19.27
2019-05-13T11:54:14.179Z,19.18
2019-05-13T11:55:13.421Z,19.17
2019-05-13T11:56:13.431Z,19.84
2019-05-13T11:57:13.422Z,19.84
2019-05-13T11:58:14.098Z,19.17
2019-05-13T11:59:14.233Z,17.84
2019-05-13T12:00:13.763Z,19.16
2019-05-13T12:01:13.426Z,21.47
2019-05-13T12:02:14.228Z,23.68
2019-05-13T12:03:13.429Z,23.65
2019-05-13T12:04:13.438Z,24.51
2019-05-13T12:05:13.427Z,25.55
2019-05-13T12:06:13.459Z,25.54
2019-05-13T12:07:13.703Z,26.30
2019-05-13T12:08:13.426Z,27.55
2019-05-13T12:09:13.537Z,27.44
2019-05-13T12:10:13.429Z,28.67
2019-05-13T12:11:14.331Z,28.85
2019-05-13T12:12:13.585Z,28.94
2019-05-13T12:13:13.429Z,29.43
2019-05-13T12:14:37.490Z,28.45
2019-05-13T12:15:26.908Z,26.72
2019-05-13T12:16:13.426Z,26.80
2019-05-13T12:17:14.186Z,27.19
2019-05-13T12:18:13.420Z,26.80
2019-05-13T12:19:13.414Z,26.70
2019-05-13T12:20:13.417Z,26.59
2019-05-13T12:21:13.424Z,26.50
2019-05-13T12:22:13.589Z,27.17
2019-05-13T12:23:13.471Z,26.92
2019-05-13T12:24:13.409Z,26.37
2019-05-13T12:25:14.057Z,26.03
2019-05-13T12:26:13.406Z,25.65
2019-05-13T12:27:13.398Z,25.46
2019-05-13T12:28:13.399Z,23.33
2019-05-13T12:29:18.753Z,23.14
2019-05-13T12:30:13.400Z,23.44
2019-05-13T12:31:13.394Z,22.97
2019-05-13T12:32:13.793Z,23.09
2019-05-13T12:33:13.653Z,22.72
2019-05-13T12:34:13.482Z,20.40
2019-05-13T12:35:13.608Z,22.16
2019-05-13T12:36:17.918Z,21.99
2019-05-13T12:37:13.385Z,20.43
2019-05-13T12:38:13.861Z,20.06
2019-05-13T12:39:14.494Z,19.87
2019-05-13T12:40:13.384Z,19.00
2019-05-13T12:41:13.381Z,18.91
2019-05-13T12:42:13.382Z,18.04
2019-05-13T12:43:13.920Z,19.79
2019-05-13T12:44:13.381Z,18.41
2019-05-13T12:45:14.560Z,18.49
2019-05-13T12:46:13.383Z,19.04
2019-05-13T12:47:13.429Z,19.80
2019-05-13T12:48:14.293Z,20.76
2019-05-13T12:49:14.407Z,20.74
2019-05-13T12:50:13.858Z,21.80
2019-05-13T12:51:13.496Z,21.80
2019-05-13T12:52:13.465Z,23.27
2019-05-13T12:53:13.373Z,22.79
2019-05-13T12:54:14.187Z,23.08
2019-05-13T12:55:14.113Z,22.09
2019-05-13T12:56:13.373Z,21.89
2019-05-13T12:57:16.077Z,22.00
2019-05-13T12:58:13.369Z,22.11
2019-05-13T12:59:13.665Z,23.27
2019-05-13T13:00:13.440Z,22.00
2019-05-13T13:01:13.392Z,21.93
2019-05-13T13:02:13.599Z,22.22
2019-05-13T13:03:13.567Z,21.94
2019-05-13T13:04:13.362Z,23.10
2019-05-13T13:05:19.897Z,21.94
2019-05-13T13:07:13.660Z,22.72
2019-05-13T13:08:28.856Z,23.19
2019-05-13T13:09:13.352Z,22.11
2019-05-13T13:10:14.490Z,23.16
2019-05-13T13:11:13.457Z,23.52
2019-05-13T13:12:13.346Z,23.22